sensor_id;sensor_type;location;lat;lon;timestamp;P1;durP1;ratioP1;P2;durP2;ratioP2
50851;SDS011;43953;45.508;-122.806;2022-12-26T00:00:26;26.30;;;20.63;;
50851;SDS011;43953;45.508;-122.806;2022-12-26T00:00:59;25.67;;;20.08;;
50851;SDS011;43953;45.508;-122.806;2022-12-26T00:01:37;26.15;;;20.80;;
50851;SDS011;43953;45.508;-122.806;2022-12-26T00:02:10;26.15;;;19.92;;
50851;SDS011;43953;45.508;-122.806;2022-12-26T00:02:41;25.00;;;20.05;;
50851;SDS011;43953;45.508;-122.806;2022-12-26T00:03:13;25.08;;;20.05;;
50851;SDS011;43953;45.508;-122.806;2022-12-26T00:03:45;25.30;;;19.40;;
50851;SDS011;43953;45.508;-122.806;2022-12-26T00:04:16;26.75;;;21.50;;
50851;SDS011;43953;45.508;-122.806;2022-12-26T00:04:48;27.58;;;21.40;;
50851;SDS011;43953;45.508;-122.806;2022-12-26T00:05:20;28.52;;;21.35;;
50851;SDS011;43953;45.508;-122.806;2022-12-26T00:05:52;25.45;;;19.88;;
50851;SDS011;43953;45.508;-122.806;2022-12-26T00:06:24;24.95;;;19.88;;
50851;SDS011;43953;45.508;-122.806;2022-12-26T00:06:57;26.92;;;20.60;;
50851;SDS011;43953;45.508;-122.806;2022-12-26T00:07:29;24.92;;;20.25;;
50851;SDS011;43953;45.508;-122.806;2022-12-26T00:08:01;30.13;;;21.65;;
50851;SDS011;43953;45.508;-122.806;2022-12-26T00:08:33;28.00;;;22.15;;
50851;SDS011;43953;45.508;-122.806;2022-12-26T00:09:05;29.23;;;22.20;;
50851;SDS011;43953;45.508;-122.806;2022-12-26T00:09:37;27.50;;;21.23;;
50851;SDS011;43953;45.508;-122.806;2022-12-26T00:10:09;27.10;;;20.45;;
50851;SDS011;43953;45.508;-122.806;2022-12-26T00:10:40;26.38;;;20.33;;
50851;SDS011;43953;45.508;-122.806;2022-12-26T00:11:12;26.60;;;20.58;;
50851;SDS011;43953;45.508;-122.806;2022-12-26T00:11:44;27.10;;;21.85;;
50851;SDS011;43953;45.508;-122.806;2022-12-26T00:12:16;25.60;;;20.20;;
50851;SDS011;43953;45.508;-122.806;2022-12-26T00:12:48;25.05;;;19.63;;
50851;SDS011;43953;45.508;-122.806;2022-12-26T00:13:19;28.02;;;20.67;;
50851;SDS011;43953;45.508;-122.806;2022-12-26T00:13:55;27.65;;;21.92;;
50851;SDS011;43953;45.508;-122.806;2022-12-26T00:14:31;25.88;;;19.40;;
50851;SDS011;43953;45.508;-122.806;2022-12-26T00:15:03;26.30;;;20.08;;
50851;SDS011;43953;45.508;-122.806;2022-12-26T00:15:38;26.20;;;20.38;;
50851;SDS011;43953;45.508;-122.806;2022-12-26T00:16:11;28.63;;;20.35;;
50851;SDS011;43953;45.508;-122.806;2022-12-26T00:16:45;27.60;;;21.40;;
50851;SDS011;43953;45.508;-122.806;2022-12-26T00:17:17;27.55;;;20.63;;
50851;SDS011;43953;45.508;-122.806;2022-12-26T00:17:49;27.20;;;21.20;;
50851;SDS011;43953;45.508;-122.806;2022-12-26T00:18:20;26.98;;;20.50;;
50851;SDS011;43953;45.508;-122.806;2022-12-26T00:18:52;28.10;;;20.45;;
50851;SDS011;43953;45.508;-122.806;2022-12-26T00:19:24;28.42;;;21.08;;
50851;SDS011;43953;45.508;-122.806;2022-12-26T00:19:56;26.55;;;19.38;;
50851;SDS011;43953;45.508;-122.806;2022-12-26T00:20:28;26.20;;;20.60;;
50851;SDS011;43953;45.508;-122.806;2022-12-26T00:20:59;26.42;;;19.88;;
50851;SDS011;43953;45.508;-122.806;2022-12-26T00:21:31;26.52;;;20.65;;
50851;SDS011;43953;45.508;-122.806;2022-12-26T00:22:03;25.40;;;19.80;;
50851;SDS011;43953;45.508;-122.806;2022-12-26T00:22:35;26.50;;;19.98;;
50851;SDS011;43953;45.508;-122.806;2022-12-26T00:23:06;25.48;;;19.88;;
50851;SDS011;43953;45.508;-122.806;2022-12-26T00:23:39;25.30;;;19.92;;
50851;SDS011;43953;45.508;-122.806;2022-12-26T00:24:11;26.40;;;19.77;;
50851;SDS011;43953;45.508;-122.806;2022-12-26T00:24:43;26.63;;;19.73;;
50851;SDS011;43953;45.508;-122.806;2022-12-26T00:25:14;24.63;;;18.27;;
50851;SDS011;43953;45.508;-122.806;2022-12-26T00:25:46;23.80;;;17.60;;
50851;SDS011;43953;45.508;-122.806;2022-12-26T00:26:19;24.63;;;19.58;;
50851;SDS011;43953;45.508;-122.806;2022-12-26T00:26:52;24.02;;;18.33;;
50851;SDS011;43953;45.508;-122.806;2022-12-26T00:27:24;25.30;;;18.60;;
50851;SDS011;43953;45.508;-122.806;2022-12-26T00:27:55;22.92;;;17.50;;
50851;SDS011;43953;45.508;-122.806;2022-12-26T00:28:27;27.75;;;18.42;;
50851;SDS011;43953;45.508;-122.806;2022-12-26T00:28:59;24.63;;;19.60;;
50851;SDS011;43953;45.508;-122.806;2022-12-26T00:29:31;27.00;;;19.60;;
50851;SDS011;43953;45.508;-122.806;2022-12-26T00:30:03;28.48;;;20.45;;
50851;SDS011;43953;45.508;-122.806;2022-12-26T00:30:36;25.13;;;19.17;;
50851;SDS011;43953;45.508;-122.806;2022-12-26T00:31:11;29.38;;;22.52;;
50851;SDS011;43953;45.508;-122.806;2022-12-26T00:31:49;33.10;;;22.27;;
50851;SDS011;43953;45.508;-122.806;2022-12-26T00:32:21;32.20;;;22.88;;
50851;SDS011;43953;45.508;-122.806;2022-12-26T00:32:52;29.75;;;21.48;;
50851;SDS011;43953;45.508;-122.806;2022-12-26T00:33:24;30.73;;;23.27;;
50851;SDS011;43953;45.508;-122.806;2022-12-26T00:33:56;31.45;;;22.83;;
50851;SDS011;43953;45.508;-122.806;2022-12-26T00:34:28;29.73;;;21.23;;
50851;SDS011;43953;45.508;-122.806;2022-12-26T00:35:00;30.23;;;21.98;;
50851;SDS011;43953;45.508;-122.806;2022-12-26T00:35:31;29.65;;;21.83;;
50851;SDS011;43953;45.508;-122.806;2022-12-26T00:36:04;32.42;;;22.98;;
50851;SDS011;43953;45.508;-122.806;2022-12-26T00:36:37;31.38;;;22.25;;
50851;SDS011;43953;45.508;-122.806;2022-12-26T00:37:09;30.40;;;22.67;;
50851;SDS011;43953;45.508;-122.806;2022-12-26T00:37:40;28.15;;;21.40;;
50851;SDS011;43953;45.508;-122.806;2022-12-26T00:38:12;32.05;;;22.77;;
50851;SDS011;43953;45.508;-122.806;2022-12-26T00:38:44;27.77;;;21.27;;
50851;SDS011;43953;45.508;-122.806;2022-12-26T00:39:16;31.13;;;22.73;;
50851;SDS011;43953;45.508;-122.806;2022-12-26T00:39:48;30.70;;;23.20;;
50851;SDS011;43953;45.508;-122.806;2022-12-26T00:40:20;33.50;;;24.27;;
50851;SDS011;43953;45.508;-122.806;2022-12-26T00:40:52;28.95;;;21.38;;
50851;SDS011;43953;45.508;-122.806;2022-12-26T00:41:23;28.27;;;20.33;;
50851;SDS011;43953;45.508;-122.806;2022-12-26T00:41:55;25.70;;;20.42;;
50851;SDS011;43953;45.508;-122.806;2022-12-26T00:42:27;27.77;;;21.50;;
50851;SDS011;43953;45.508;-122.806;2022-12-26T00:42:59;27.83;;;22.05;;
50851;SDS011;43953;45.508;-122.806;2022-12-26T00:43:30;31.85;;;23.05;;
50851;SDS011;43953;45.508;-122.806;2022-12-26T00:44:02;33.60;;;23.38;;
50851;SDS011;43953;45.508;-122.806;2022-12-26T00:44:34;32.40;;;23.35;;
50851;SDS011;43953;45.508;-122.806;2022-12-26T00:45:06;30.17;;;21.88;;
50851;SDS011;43953;45.508;-122.806;2022-12-26T00:45:38;28.10;;;20.95;;
50851;SDS011;43953;45.508;-122.806;2022-12-26T00:46:14;28.90;;;21.17;;
50851;SDS011;43953;45.508;-122.806;2022-12-26T00:46:46;29.45;;;21.13;;
50851;SDS011;43953;45.508;-122.806;2022-12-26T00:47:18;30.33;;;21.92;;
50851;SDS011;43953;45.508;-122.806;2022-12-26T00:47:49;30.38;;;22.65;;
50851;SDS011;43953;45.508;-122.806;2022-12-26T00:48:22;28.88;;;20.90;;
50851;SDS011;43953;45.508;-122.806;2022-12-26T00:48:53;29.02;;;21.83;;
50851;SDS011;43953;45.508;-122.806;2022-12-26T00:49:25;29.35;;;21.95;;
50851;SDS011;43953;45.508;-122.806;2022-12-26T00:49:57;29.80;;;23.05;;
50851;SDS011;43953;45.508;-122.806;2022-12-26T00:50:29;33.70;;;23.63;;
50851;SDS011;43953;45.508;-122.806;2022-12-26T00:51:00;31.27;;;23.27;;
50851;SDS011;43953;45.508;-122.806;2022-12-26T00:51:33;33.63;;;23.98;;
50851;SDS011;43953;45.508;-122.806;2022-12-26T00:52:04;32.95;;;22.95;;
50851;SDS011;43953;45.508;-122.806;2022-12-26T00:52:36;32.80;;;22.98;;
50851;SDS011;43953;45.508;-122.806;2022-12-26T00:53:08;33.40;;;24.20;;
50851;SDS011;43953;45.508;-122.806;2022-12-26T00:53:39;32.13;;;23.30;;
50851;SDS011;43953;45.508;-122.806;2022-12-26T00:54:11;34.35;;;24.75;;
50851;SDS011;43953;45.508;-122.806;2022-12-26T00:54:43;33.15;;;23.33;;
50851;SDS011;43953;45.508;-122.806;2022-12-26T00:55:15;33.05;;;25.27;;
50851;SDS011;43953;45.508;-122.806;2022-12-26T00:55:46;34.00;;;23.05;;
50851;SDS011;43953;45.508;-122.806;2022-12-26T00:56:19;32.92;;;23.52;;
50851;SDS011;43953;45.508;-122.806;2022-12-26T00:56:51;32.70;;;22.20;;
50851;SDS011;43953;45.508;-122.806;2022-12-26T00:57:22;34.03;;;24.65;;
50851;SDS011;43953;45.508;-122.806;2022-12-26T00:57:54;33.65;;;23.98;;
50851;SDS011;43953;45.508;-122.806;2022-12-26T00:58:26;34.17;;;23.80;;
50851;SDS011;43953;45.508;-122.806;2022-12-26T00:58:58;33.25;;;23.95;;
50851;SDS011;43953;45.508;-122.806;2022-12-26T00:59:29;32.67;;;23.60;;
50851;SDS011;43953;45.508;-122.806;2022-12-26T01:00:01;34.20;;;23.58;;
50851;SDS011;43953;45.508;-122.806;2022-12-26T01:00:34;32.15;;;22.52;;
50851;SDS011;43953;45.508;-122.806;2022-12-26T01:01:11;32.78;;;23.70;;
50851;SDS011;43953;45.508;-122.806;2022-12-26T01:01:50;29.80;;;22.35;;
50851;SDS011;43953;45.508;-122.806;2022-12-26T01:02:22;30.17;;;22.83;;
50851;SDS011;43953;45.508;-122.806;2022-12-26T01:03:09;31.05;;;22.58;;
50851;SDS011;43953;45.508;-122.806;2022-12-26T01:03:42;31.95;;;23.40;;
50851;SDS011;43953;45.508;-122.806;2022-12-26T01:04:16;31.35;;;22.63;;
50851;SDS011;43953;45.508;-122.806;2022-12-26T01:04:47;32.65;;;22.95;;
50851;SDS011;43953;45.508;-122.806;2022-12-26T01:05:19;32.40;;;23.08;;
50851;SDS011;43953;45.508;-122.806;2022-12-26T01:05:51;32.70;;;22.50;;
50851;SDS011;43953;45.508;-122.806;2022-12-26T01:06:22;30.70;;;22.52;;
50851;SDS011;43953;45.508;-122.806;2022-12-26T01:06:54;31.80;;;22.90;;
50851;SDS011;43953;45.508;-122.806;2022-12-26T01:07:26;31.67;;;23.15;;
50851;SDS011;43953;45.508;-122.806;2022-12-26T01:07:57;30.27;;;22.95;;
50851;SDS011;43953;45.508;-122.806;2022-12-26T01:08:29;34.55;;;24.23;;
50851;SDS011;43953;45.508;-122.806;2022-12-26T01:09:01;29.58;;;22.75;;
50851;SDS011;43953;45.508;-122.806;2022-12-26T01:09:33;31.13;;;22.83;;
50851;SDS011;43953;45.508;-122.806;2022-12-26T01:10:07;29.83;;;22.70;;
50851;SDS011;43953;45.508;-122.806;2022-12-26T01:10:41;31.55;;;22.50;;
50851;SDS011;43953;45.508;-122.806;2022-12-26T01:11:15;28.45;;;19.63;;
50851;SDS011;43953;45.508;-122.806;2022-12-26T01:12:09;28.08;;;18.73;;
50851;SDS011;43953;45.508;-122.806;2022-12-26T01:12:41;28.20;;;20.17;;
50851;SDS011;43953;45.508;-122.806;2022-12-26T01:13:13;26.75;;;19.02;;
50851;SDS011;43953;45.508;-122.806;2022-12-26T01:13:45;28.95;;;20.08;;
50851;SDS011;43953;45.508;-122.806;2022-12-26T01:14:17;26.15;;;20.30;;
50851;SDS011;43953;45.508;-122.806;2022-12-26T01:14:49;26.55;;;19.88;;
50851;SDS011;43953;45.508;-122.806;2022-12-26T01:15:20;26.30;;;18.70;;
50851;SDS011;43953;45.508;-122.806;2022-12-26T01:15:52;25.48;;;19.52;;
50851;SDS011;43953;45.508;-122.806;2022-12-26T01:16:24;24.45;;;18.60;;
50851;SDS011;43953;45.508;-122.806;2022-12-26T01:16:55;26.65;;;18.15;;
50851;SDS011;43953;45.508;-122.806;2022-12-26T01:17:27;24.10;;;18.05;;
50851;SDS011;43953;45.508;-122.806;2022-12-26T01:17:59;25.27;;;18.50;;
50851;SDS011;43953;45.508;-122.806;2022-12-26T01:18:32;24.60;;;18.08;;
50851;SDS011;43953;45.508;-122.806;2022-12-26T01:19:04;27.42;;;19.08;;
50851;SDS011;43953;45.508;-122.806;2022-12-26T01:19:36;24.73;;;19.80;;
50851;SDS011;43953;45.508;-122.806;2022-12-26T01:20:08;27.15;;;20.38;;
50851;SDS011;43953;45.508;-122.806;2022-12-26T01:20:40;23.17;;;18.90;;
50851;SDS011;43953;45.508;-122.806;2022-12-26T01:21:12;25.95;;;19.08;;
50851;SDS011;43953;45.508;-122.806;2022-12-26T01:21:44;25.38;;;19.25;;
50851;SDS011;43953;45.508;-122.806;2022-12-26T01:22:15;28.60;;;20.42;;
50851;SDS011;43953;45.508;-122.806;2022-12-26T01:22:47;27.83;;;20.70;;
50851;SDS011;43953;45.508;-122.806;2022-12-26T01:23:19;28.13;;;20.45;;
50851;SDS011;43953;45.508;-122.806;2022-12-26T01:23:51;26.42;;;19.73;;
50851;SDS011;43953;45.508;-122.806;2022-12-26T01:24:22;26.75;;;19.70;;
50851;SDS011;43953;45.508;-122.806;2022-12-26T01:24:55;25.25;;;19.83;;
50851;SDS011;43953;45.508;-122.806;2022-12-26T01:25:27;25.33;;;19.52;;
50851;SDS011;43953;45.508;-122.806;2022-12-26T01:25:59;26.65;;;19.77;;
50851;SDS011;43953;45.508;-122.806;2022-12-26T01:26:31;26.63;;;19.63;;
50851;SDS011;43953;45.508;-122.806;2022-12-26T01:27:02;23.08;;;18.08;;
50851;SDS011;43953;45.508;-122.806;2022-12-26T01:27:34;22.25;;;18.15;;
50851;SDS011;43953;45.508;-122.806;2022-12-26T01:28:06;23.77;;;16.75;;
50851;SDS011;43953;45.508;-122.806;2022-12-26T01:28:37;23.15;;;17.90;;
50851;SDS011;43953;45.508;-122.806;2022-12-26T01:29:09;22.20;;;16.77;;
50851;SDS011;43953;45.508;-122.806;2022-12-26T01:29:41;24.45;;;17.80;;
50851;SDS011;43953;45.508;-122.806;2022-12-26T01:30:12;21.65;;;15.45;;
50851;SDS011;43953;45.508;-122.806;2022-12-26T01:30:44;19.65;;;15.63;;
50851;SDS011;43953;45.508;-122.806;2022-12-26T01:31:17;21.65;;;16.25;;
50851;SDS011;43953;45.508;-122.806;2022-12-26T01:31:49;20.00;;;15.45;;
50851;SDS011;43953;45.508;-122.806;2022-12-26T01:32:21;18.65;;;15.13;;
50851;SDS011;43953;45.508;-122.806;2022-12-26T01:32:53;22.08;;;16.13;;
50851;SDS011;43953;45.508;-122.806;2022-12-26T01:33:25;19.73;;;14.85;;
50851;SDS011;43953;45.508;-122.806;2022-12-26T01:33:57;18.73;;;14.98;;
50851;SDS011;43953;45.508;-122.806;2022-12-26T01:34:29;21.08;;;15.82;;
50851;SDS011;43953;45.508;-122.806;2022-12-26T01:35:00;21.50;;;16.23;;
50851;SDS011;43953;45.508;-122.806;2022-12-26T01:35:32;22.60;;;17.23;;
50851;SDS011;43953;45.508;-122.806;2022-12-26T01:36:04;23.77;;;16.27;;
50851;SDS011;43953;45.508;-122.806;2022-12-26T01:36:36;19.85;;;15.15;;
50851;SDS011;43953;45.508;-122.806;2022-12-26T01:37:08;20.85;;;15.50;;
50851;SDS011;43953;45.508;-122.806;2022-12-26T01:37:45;20.20;;;14.93;;
50851;SDS011;43953;45.508;-122.806;2022-12-26T01:38:17;19.20;;;14.23;;
50851;SDS011;43953;45.508;-122.806;2022-12-26T01:38:49;16.50;;;12.27;;
50851;SDS011;43953;45.508;-122.806;2022-12-26T01:39:21;19.08;;;13.65;;
50851;SDS011;43953;45.508;-122.806;2022-12-26T01:39:53;18.17;;;13.25;;
50851;SDS011;43953;45.508;-122.806;2022-12-26T01:40:24;17.58;;;14.05;;
50851;SDS011;43953;45.508;-122.806;2022-12-26T01:40:56;17.75;;;13.27;;
50851;SDS011;43953;45.508;-122.806;2022-12-26T01:41:46;19.08;;;13.88;;
50851;SDS011;43953;45.508;-122.806;2022-12-26T01:42:21;17.90;;;13.57;;
50851;SDS011;43953;45.508;-122.806;2022-12-26T01:42:54;18.17;;;13.30;;
50851;SDS011;43953;45.508;-122.806;2022-12-26T01:43:26;18.23;;;12.52;;
50851;SDS011;43953;45.508;-122.806;2022-12-26T01:45:29;15.82;;;12.60;;
50851;SDS011;43953;45.508;-122.806;2022-12-26T01:46:02;16.67;;;12.57;;
50851;SDS011;43953;45.508;-122.806;2022-12-26T01:47:14;19.58;;;13.65;;
50851;SDS011;43953;45.508;-122.806;2022-12-26T01:47:53;18.17;;;13.82;;
50851;SDS011;43953;45.508;-122.806;2022-12-26T01:48:25;20.77;;;13.35;;
50851;SDS011;43953;45.508;-122.806;2022-12-26T01:49:08;17.50;;;12.70;;
50851;SDS011;43953;45.508;-122.806;2022-12-26T01:49:49;16.38;;;12.68;;
50851;SDS011;43953;45.508;-122.806;2022-12-26T01:50:40;18.60;;;13.52;;
50851;SDS011;43953;45.508;-122.806;2022-12-26T01:51:18;18.10;;;13.50;;
50851;SDS011;43953;45.508;-122.806;2022-12-26T01:51:54;19.70;;;13.88;;
50851;SDS011;43953;45.508;-122.806;2022-12-26T01:52:31;16.85;;;12.95;;
50851;SDS011;43953;45.508;-122.806;2022-12-26T01:53:17;17.27;;;13.20;;
50851;SDS011;43953;45.508;-122.806;2022-12-26T01:53:59;18.40;;;12.57;;
50851;SDS011;43953;45.508;-122.806;2022-12-26T01:54:36;18.42;;;13.18;;
50851;SDS011;43953;45.508;-122.806;2022-12-26T01:55:11;17.52;;;12.50;;
50851;SDS011;43953;45.508;-122.806;2022-12-26T01:55:48;17.70;;;13.10;;
50851;SDS011;43953;45.508;-122.806;2022-12-26T01:56:30;18.55;;;12.93;;
50851;SDS011;43953;45.508;-122.806;2022-12-26T01:57:08;17.73;;;13.18;;
50851;SDS011;43953;45.508;-122.806;2022-12-26T01:57:49;17.70;;;12.65;;
50851;SDS011;43953;45.508;-122.806;2022-12-26T01:58:32;18.02;;;13.27;;
50851;SDS011;43953;45.508;-122.806;2022-12-26T01:59:10;19.27;;;14.07;;
50851;SDS011;43953;45.508;-122.806;2022-12-26T01:59:47;20.60;;;14.45;;
50851;SDS011;43953;45.508;-122.806;2022-12-26T02:00:21;25.13;;;15.48;;
50851;SDS011;43953;45.508;-122.806;2022-12-26T02:00:53;21.52;;;15.02;;
50851;SDS011;43953;45.508;-122.806;2022-12-26T02:01:25;21.85;;;14.00;;
50851;SDS011;43953;45.508;-122.806;2022-12-26T02:02:01;21.48;;;14.02;;
50851;SDS011;43953;45.508;-122.806;2022-12-26T02:02:34;19.63;;;13.88;;
50851;SDS011;43953;45.508;-122.806;2022-12-26T02:03:25;20.63;;;13.95;;
50851;SDS011;43953;45.508;-122.806;2022-12-26T02:04:16;19.50;;;13.50;;
50851;SDS011;43953;45.508;-122.806;2022-12-26T02:05:10;19.15;;;13.88;;
50851;SDS011;43953;45.508;-122.806;2022-12-26T02:06:00;20.52;;;14.02;;
50851;SDS011;43953;45.508;-122.806;2022-12-26T02:06:33;22.75;;;15.95;;
50851;SDS011;43953;45.508;-122.806;2022-12-26T02:07:05;21.52;;;17.13;;
50851;SDS011;43953;45.508;-122.806;2022-12-26T02:07:38;22.23;;;15.25;;
50851;SDS011;43953;45.508;-122.806;2022-12-26T02:08:13;21.92;;;15.93;;
50851;SDS011;43953;45.508;-122.806;2022-12-26T02:08:49;20.95;;;15.35;;
50851;SDS011;43953;45.508;-122.806;2022-12-26T02:09:21;20.60;;;15.32;;
50851;SDS011;43953;45.508;-122.806;2022-12-26T02:09:52;20.98;;;15.80;;
50851;SDS011;43953;45.508;-122.806;2022-12-26T02:10:24;21.73;;;16.17;;
50851;SDS011;43953;45.508;-122.806;2022-12-26T02:11:06;21.15;;;15.45;;
50851;SDS011;43953;45.508;-122.806;2022-12-26T02:12:05;20.30;;;14.65;;
50851;SDS011;43953;45.508;-122.806;2022-12-26T02:12:39;19.95;;;14.52;;
50851;SDS011;43953;45.508;-122.806;2022-12-26T02:13:11;22.27;;;15.85;;
50851;SDS011;43953;45.508;-122.806;2022-12-26T02:13:43;20.77;;;15.57;;
50851;SDS011;43953;45.508;-122.806;2022-12-26T02:14:15;21.52;;;15.60;;
50851;SDS011;43953;45.508;-122.806;2022-12-26T02:14:47;23.83;;;15.77;;
50851;SDS011;43953;45.508;-122.806;2022-12-26T02:15:20;24.15;;;15.55;;
50851;SDS011;43953;45.508;-122.806;2022-12-26T02:15:52;22.58;;;16.63;;
50851;SDS011;43953;45.508;-122.806;2022-12-26T02:16:23;21.92;;;15.23;;
50851;SDS011;43953;45.508;-122.806;2022-12-26T02:16:55;19.02;;;15.32;;
50851;SDS011;43953;45.508;-122.806;2022-12-26T02:17:27;21.42;;;15.95;;
50851;SDS011;43953;45.508;-122.806;2022-12-26T02:17:59;19.20;;;15.18;;
50851;SDS011;43953;45.508;-122.806;2022-12-26T02:18:31;18.77;;;14.10;;
50851;SDS011;43953;45.508;-122.806;2022-12-26T02:19:03;21.88;;;15.73;;
50851;SDS011;43953;45.508;-122.806;2022-12-26T02:19:43;21.42;;;16.30;;
50851;SDS011;43953;45.508;-122.806;2022-12-26T02:20:30;19.63;;;14.32;;
50851;SDS011;43953;45.508;-122.806;2022-12-26T02:24:35;19.40;;;14.10;;
50851;SDS011;43953;45.508;-122.806;2022-12-26T02:28:43;22.73;;;14.93;;
50851;SDS011;43953;45.508;-122.806;2022-12-26T02:31:13;22.50;;;15.95;;
50851;SDS011;43953;45.508;-122.806;2022-12-26T02:36:02;23.13;;;17.10;;
50851;SDS011;43953;45.508;-122.806;2022-12-26T02:41:08;27.30;;;19.65;;
50851;SDS011;43953;45.508;-122.806;2022-12-26T02:42:58;24.30;;;17.55;;
50851;SDS011;43953;45.508;-122.806;2022-12-26T02:52:15;23.67;;;17.20;;
50851;SDS011;43953;45.508;-122.806;2022-12-26T02:53:27;27.98;;;19.42;;
50851;SDS011;43953;45.508;-122.806;2022-12-26T02:56:12;26.15;;;18.35;;
50851;SDS011;43953;45.508;-122.806;2022-12-26T02:57:10;26.33;;;18.05;;
50851;SDS011;43953;45.508;-122.806;2022-12-26T02:58:06;24.38;;;17.98;;
50851;SDS011;43953;45.508;-122.806;2022-12-26T02:59:17;22.20;;;17.00;;
50851;SDS011;43953;45.508;-122.806;2022-12-26T03:00:24;21.83;;;15.82;;
50851;SDS011;43953;45.508;-122.806;2022-12-26T03:01:24;26.85;;;18.65;;
50851;SDS011;43953;45.508;-122.806;2022-12-26T03:02:38;24.67;;;17.52;;
50851;SDS011;43953;45.508;-122.806;2022-12-26T03:03:32;26.33;;;18.50;;
50851;SDS011;43953;45.508;-122.806;2022-12-26T03:04:25;28.85;;;18.23;;
50851;SDS011;43953;45.508;-122.806;2022-12-26T03:05:53;25.48;;;18.00;;
50851;SDS011;43953;45.508;-122.806;2022-12-26T03:06:39;26.98;;;20.38;;
50851;SDS011;43953;45.508;-122.806;2022-12-26T03:07:40;27.88;;;19.85;;
50851;SDS011;43953;45.508;-122.806;2022-12-26T03:08:42;28.27;;;20.50;;
50851;SDS011;43953;45.508;-122.806;2022-12-26T03:09:37;28.55;;;20.30;;
50851;SDS011;43953;45.508;-122.806;2022-12-26T03:10:31;28.08;;;20.45;;
50851;SDS011;43953;45.508;-122.806;2022-12-26T03:11:25;27.15;;;20.85;;
50851;SDS011;43953;45.508;-122.806;2022-12-26T03:13:12;25.48;;;18.50;;
50851;SDS011;43953;45.508;-122.806;2022-12-26T03:13:50;26.27;;;20.17;;
50851;SDS011;43953;45.508;-122.806;2022-12-26T03:14:25;25.92;;;18.65;;
50851;SDS011;43953;45.508;-122.806;2022-12-26T03:15:20;24.83;;;19.30;;
50851;SDS011;43953;45.508;-122.806;2022-12-26T03:16:00;24.45;;;18.90;;
50851;SDS011;43953;45.508;-122.806;2022-12-26T03:17:01;24.92;;;18.20;;
50851;SDS011;43953;45.508;-122.806;2022-12-26T03:17:56;26.05;;;19.30;;
50851;SDS011;43953;45.508;-122.806;2022-12-26T03:18:33;26.98;;;19.73;;
50851;SDS011;43953;45.508;-122.806;2022-12-26T03:19:07;23.33;;;19.08;;
50851;SDS011;43953;45.508;-122.806;2022-12-26T03:19:42;24.75;;;17.90;;
50851;SDS011;43953;45.508;-122.806;2022-12-26T03:20:34;25.70;;;18.50;;
50851;SDS011;43953;45.508;-122.806;2022-12-26T03:21:08;24.67;;;18.95;;
50851;SDS011;43953;45.508;-122.806;2022-12-26T03:21:42;25.17;;;18.85;;
50851;SDS011;43953;45.508;-122.806;2022-12-26T03:22:17;22.42;;;17.02;;
50851;SDS011;43953;45.508;-122.806;2022-12-26T03:23:05;23.75;;;17.52;;
50851;SDS011;43953;45.508;-122.806;2022-12-26T03:23:40;22.65;;;17.70;;
50851;SDS011;43953;45.508;-122.806;2022-12-26T03:24:15;23.88;;;17.35;;
50851;SDS011;43953;45.508;-122.806;2022-12-26T03:24:47;22.52;;;17.48;;
50851;SDS011;43953;45.508;-122.806;2022-12-26T03:25:39;23.23;;;18.23;;
50851;SDS011;43953;45.508;-122.806;2022-12-26T03:26:35;24.90;;;18.48;;
50851;SDS011;43953;45.508;-122.806;2022-12-26T03:27:10;22.92;;;17.23;;
50851;SDS011;43953;45.508;-122.806;2022-12-26T03:27:41;22.73;;;18.02;;
50851;SDS011;43953;45.508;-122.806;2022-12-26T03:28:13;21.80;;;17.55;;
50851;SDS011;43953;45.508;-122.806;2022-12-26T03:28:46;23.98;;;18.58;;
50851;SDS011;43953;45.508;-122.806;2022-12-26T03:29:19;22.02;;;17.13;;
50851;SDS011;43953;45.508;-122.806;2022-12-26T03:30:10;20.90;;;17.08;;
50851;SDS011;43953;45.508;-122.806;2022-12-26T03:31:01;22.98;;;16.75;;
50851;SDS011;43953;45.508;-122.806;2022-12-26T03:31:36;21.30;;;16.95;;
50851;SDS011;43953;45.508;-122.806;2022-12-26T03:32:09;23.90;;;18.25;;
50851;SDS011;43953;45.508;-122.806;2022-12-26T03:32:42;19.95;;;17.15;;
50851;SDS011;43953;45.508;-122.806;2022-12-26T03:33:34;22.88;;;18.40;;
50851;SDS011;43953;45.508;-122.806;2022-12-26T03:34:26;23.30;;;17.98;;
50851;SDS011;43953;45.508;-122.806;2022-12-26T03:34:58;22.65;;;16.83;;
50851;SDS011;43953;45.508;-122.806;2022-12-26T03:35:32;22.05;;;16.83;;
50851;SDS011;43953;45.508;-122.806;2022-12-26T03:36:04;21.60;;;17.63;;
50851;SDS011;43953;45.508;-122.806;2022-12-26T03:38:32;20.23;;;16.20;;
50851;SDS011;43953;45.508;-122.806;2022-12-26T03:40:43;21.40;;;16.75;;
50851;SDS011;43953;45.508;-122.806;2022-12-26T03:41:57;21.50;;;17.35;;
50851;SDS011;43953;45.508;-122.806;2022-12-26T03:42:58;19.58;;;14.93;;
50851;SDS011;43953;45.508;-122.806;2022-12-26T03:43:55;23.15;;;17.05;;
50851;SDS011;43953;45.508;-122.806;2022-12-26T03:46:16;22.00;;;16.42;;
50851;SDS011;43953;45.508;-122.806;2022-12-26T03:49:46;20.73;;;16.50;;
50851;SDS011;43953;45.508;-122.806;2022-12-26T03:50:46;19.65;;;14.88;;
50851;SDS011;43953;45.508;-122.806;2022-12-26T03:52:59;23.40;;;17.48;;
50851;SDS011;43953;45.508;-122.806;2022-12-26T03:53:54;22.50;;;16.80;;
50851;SDS011;43953;45.508;-122.806;2022-12-26T03:55:51;21.98;;;16.65;;
50851;SDS011;43953;45.508;-122.806;2022-12-26T03:57:03;23.60;;;17.45;;
50851;SDS011;43953;45.508;-122.806;2022-12-26T03:58:10;25.83;;;17.55;;
50851;SDS011;43953;45.508;-122.806;2022-12-26T03:59:09;23.70;;;17.27;;
50851;SDS011;43953;45.508;-122.806;2022-12-26T04:00:05;25.98;;;17.92;;
50851;SDS011;43953;45.508;-122.806;2022-12-26T04:01:20;25.65;;;18.63;;
50851;SDS011;43953;45.508;-122.806;2022-12-26T04:02:15;24.63;;;17.83;;
50851;SDS011;43953;45.508;-122.806;2022-12-26T04:03:09;25.83;;;19.48;;
50851;SDS011;43953;45.508;-122.806;2022-12-26T04:04:02;22.92;;;18.77;;
50851;SDS011;43953;45.508;-122.806;2022-12-26T04:04:55;24.38;;;17.38;;
50851;SDS011;43953;45.508;-122.806;2022-12-26T04:05:47;23.48;;;17.90;;
50851;SDS011;43953;45.508;-122.806;2022-12-26T04:06:43;22.75;;;17.77;;
50851;SDS011;43953;45.508;-122.806;2022-12-26T04:07:45;23.73;;;18.10;;
50851;SDS011;43953;45.508;-122.806;2022-12-26T04:08:53;22.55;;;16.75;;
50851;SDS011;43953;45.508;-122.806;2022-12-26T04:09:54;23.23;;;17.60;;
50851;SDS011;43953;45.508;-122.806;2022-12-26T04:10:53;24.98;;;19.20;;
50851;SDS011;43953;45.508;-122.806;2022-12-26T04:11:45;25.15;;;17.48;;
50851;SDS011;43953;45.508;-122.806;2022-12-26T04:12:35;21.80;;;17.63;;
50851;SDS011;43953;45.508;-122.806;2022-12-26T04:13:43;24.25;;;17.23;;
50851;SDS011;43953;45.508;-122.806;2022-12-26T04:14:39;25.15;;;18.65;;